sensor_id;sensor_type;location;lat;lon;timestamp;pressure;altitude;pressure_sealevel;temperature
67822;BMP180;54434;50.096;20.082;2023-05-18T00:02:05;99392.40;;;9.26
67822;BMP180;54434;50.096;20.082;2023-05-18T00:04:42;99392.20;;;9.20
67822;BMP180;54434;50.096;20.082;2023-05-18T00:07:19;99389.00;;;9.20
67822;BMP180;54434;50.096;20.082;2023-05-18T00:09:55;99384.20;;;9.20
67822;BMP180;54434;50.096;20.082;2023-05-18T00:12:32;99390.40;;;9.20
67822;BMP180;54434;50.096;20.082;2023-05-18T00:15:10;99392.80;;;9.20
67822;BMP180;54434;50.096;20.082;2023-05-18T00:17:47;99394.20;;;9.20
67822;BMP180;54434;50.096;20.082;2023-05-18T00:20:24;99399.20;;;9.20
67822;BMP180;54434;50.096;20.082;2023-05-18T00:23:02;99392.40;;;9.20
67822;BMP180;54434;50.096;20.082;2023-05-18T00:25:40;99390.80;;;9.20
67822;BMP180;54434;50.096;20.082;2023-05-18T00:28:16;99389.80;;;9.20
67822;BMP180;54434;50.096;20.082;2023-05-18T00:30:53;99393.20;;;9.20
67822;BMP180;54434;50.096;20.082;2023-05-18T00:33:30;99392.40;;;9.16
67822;BMP180;54434;50.096;20.082;2023-05-18T00:36:07;99390.80;;;9.10
67822;BMP180;54434;50.096;20.082;2023-05-18T00:38:44;99387.00;;;9.10
67822;BMP180;54434;50.096;20.082;2023-05-18T00:41:21;99389.40;;;9.10
67822;BMP180;54434;50.096;20.082;2023-05-18T00:43:58;99384.20;;;9.10
67822;BMP180;54434;50.096;20.082;2023-05-18T00:46:36;99385.40;;;9.10
67822;BMP180;54434;50.096;20.082;2023-05-18T00:49:13;99386.80;;;9.08
67822;BMP180;54434;50.096;20.082;2023-05-18T00:51:50;99385.40;;;9.02
67822;BMP180;54434;50.096;20.082;2023-05-18T00:54:28;99383.20;;;9.00
67822;BMP180;54434;50.096;20.082;2023-05-18T00:57:05;99381.40;;;9.00
67822;BMP180;54434;50.096;20.082;2023-05-18T00:59:45;99383.80;;;9.00
67822;BMP180;54434;50.096;20.082;2023-05-18T01:02:23;99385.60;;;9.00
67822;BMP180;54434;50.096;20.082;2023-05-18T01:05:05;99383.20;;;8.98
67822;BMP180;54434;50.096;20.082;2023-05-18T01:07:43;99389.20;;;8.90
67822;BMP180;54434;50.096;20.082;2023-05-18T01:10:20;99394.20;;;8.90
67822;BMP180;54434;50.096;20.082;2023-05-18T01:13:05;99390.60;;;8.90
67822;BMP180;54434;50.096;20.082;2023-05-18T01:15:44;99396.20;;;8.90
67822;BMP180;54434;50.096;20.082;2023-05-18T01:18:33;99397.40;;;8.90
67822;BMP180;54434;50.096;20.082;2023-05-18T01:21:28;99403.80;;;8.90
67822;BMP180;54434;50.096;20.082;2023-05-18T01:24:29;99403.80;;;8.90
67822;BMP180;54434;50.096;20.082;2023-05-18T01:27:09;99402.60;;;8.90
67822;BMP180;54434;50.096;20.082;2023-05-18T01:29:51;99401.60;;;8.90
67822;BMP180;54434;50.096;20.082;2023-05-18T01:32:29;99402.00;;;8.90
67822;BMP180;54434;50.096;20.082;2023-05-18T01:35:06;99403.40;;;8.90
67822;BMP180;54434;50.096;20.082;2023-05-18T01:37:43;99405.80;;;8.90
67822;BMP180;54434;50.096;20.082;2023-05-18T01:40:19;99408.00;;;8.90
67822;BMP180;54434;50.096;20.082;2023-05-18T01:43:05;99410.20;;;8.90
67822;BMP180;54434;50.096;20.082;2023-05-18T01:45:52;99410.00;;;8.90
67822;BMP180;54434;50.096;20.082;2023-05-18T01:48:33;99409.60;;;8.90
67822;BMP180;54434;50.096;20.082;2023-05-18T01:51:19;99412.00;;;8.90
67822;BMP180;54434;50.096;20.082;2023-05-18T01:54:03;99414.40;;;8.90
67822;BMP180;54434;50.096;20.082;2023-05-18T01:56:41;99411.20;;;8.88
67822;BMP180;54434;50.096;20.082;2023-05-18T01:59:19;99413.80;;;8.82
67822;BMP180;54434;50.096;20.082;2023-05-18T02:02:01;99411.80;;;8.80
67822;BMP180;54434;50.096;20.082;2023-05-18T02:04:38;99416.00;;;8.80
67822;BMP180;54434;50.096;20.082;2023-05-18T02:07:14;99415.20;;;8.80
67822;BMP180;54434;50.096;20.082;2023-05-18T02:09:52;99418.20;;;8.80
67822;BMP180;54434;50.096;20.082;2023-05-18T02:12:29;99417.00;;;8.80
67822;BMP180;54434;50.096;20.082;2023-05-18T02:15:07;99418.80;;;8.80
67822;BMP180;54434;50.096;20.082;2023-05-18T02:17:44;99417.20;;;8.80
67822;BMP180;54434;50.096;20.082;2023-05-18T02:20:21;99414.80;;;8.74
67822;BMP180;54434;50.096;20.082;2023-05-18T02:22:58;99415.40;;;8.70
67822;BMP180;54434;50.096;20.082;2023-05-18T02:25:35;99415.20;;;8.70
67822;BMP180;54434;50.096;20.082;2023-05-18T02:28:12;99415.20;;;8.70
67822;BMP180;54434;50.096;20.082;2023-05-18T02:30:49;99419.20;;;8.70
67822;BMP180;54434;50.096;20.082;2023-05-18T02:33:26;99420.60;;;8.70
67822;BMP180;54434;50.096;20.082;2023-05-18T02:36:13;99419.40;;;8.70
67822;BMP180;54434;50.096;20.082;2023-05-18T02:38:52;99423.40;;;8.70
67822;BMP180;54434;50.096;20.082;2023-05-18T02:41:29;99426.60;;;8.70
67822;BMP180;54434;50.096;20.082;2023-05-18T02:44:06;99423.60;;;8.66
67822;BMP180;54434;50.096;20.082;2023-05-18T02:46:42;99425.20;;;8.60
67822;BMP180;54434;50.096;20.082;2023-05-18T02:49:19;99427.80;;;8.60
67822;BMP180;54434;50.096;20.082;2023-05-18T02:51:55;99425.40;;;8.60
67822;BMP180;54434;50.096;20.082;2023-05-18T02:54:32;99430.00;;;8.60
67822;BMP180;54434;50.096;20.082;2023-05-18T02:57:09;99428.80;;;8.60
67822;BMP180;54434;50.096;20.082;2023-05-18T02:59:59;99431.20;;;8.60
67822;BMP180;54434;50.096;20.082;2023-05-18T03:02:35;99434.00;;;8.60
67822;BMP180;54434;50.096;20.082;2023-05-18T03:05:13;99435.40;;;8.60
67822;BMP180;54434;50.096;20.082;2023-05-18T03:07:51;99443.20;;;8.60
67822;BMP180;54434;50.096;20.082;2023-05-18T03:10:28;99446.40;;;8.60
67822;BMP180;54434;50.096;20.082;2023-05-18T03:13:05;99452.40;;;8.60
67822;BMP180;54434;50.096;20.082;2023-05-18T03:15:42;99450.80;;;8.60
67822;BMP180;54434;50.096;20.082;2023-05-18T03:18:21;99451.20;;;8.60
67822;BMP180;54434;50.096;20.082;2023-05-18T03:20:59;99457.60;;;8.60
67822;BMP180;54434;50.096;20.082;2023-05-18T03:23:36;99460.40;;;8.60
67822;BMP180;54434;50.096;20.082;2023-05-18T03:26:13;99462.60;;;8.60
67822;BMP180;54434;50.096;20.082;2023-05-18T03:28:50;99466.60;;;8.60
67822;BMP180;54434;50.096;20.082;2023-05-18T03:31:27;99464.20;;;8.60
67822;BMP180;54434;50.096;20.082;2023-05-18T03:34:05;99468.40;;;8.60
67822;BMP180;54434;50.096;20.082;2023-05-18T03:36:42;99471.60;;;8.60
67822;BMP180;54434;50.096;20.082;2023-05-18T03:39:22;99473.40;;;8.60
67822;BMP180;54434;50.096;20.082;2023-05-18T03:41:59;99481.80;;;8.60
67822;BMP180;54434;50.096;20.082;2023-05-18T03:44:36;99484.80;;;8.60
67822;BMP180;54434;50.096;20.082;2023-05-18T03:47:12;99489.60;;;8.60
67822;BMP180;54434;50.096;20.082;2023-05-18T03:49:49;99496.40;;;8.50
67822;BMP180;54434;50.096;20.082;2023-05-18T03:52:25;99500.40;;;8.50
67822;BMP180;54434;50.096;20.082;2023-05-18T03:55:05;99500.20;;;8.50
67822;BMP180;54434;50.096;20.082;2023-05-18T03:57:41;99510.80;;;8.48
67822;BMP180;54434;50.096;20.082;2023-05-18T04:00:20;99524.60;;;8.42
67822;BMP180;54434;50.096;20.082;2023-05-18T04:02:57;99515.40;;;8.40
67822;BMP180;54434;50.096;20.082;2023-05-18T04:05:34;99523.40;;;8.40
67822;BMP180;54434;50.096;20.082;2023-05-18T04:08:11;99529.60;;;8.30
67822;BMP180;54434;50.096;20.082;2023-05-18T04:10:48;99536.20;;;8.30
67822;BMP180;54434;50.096;20.082;2023-05-18T04:13:25;99542.40;;;8.24
67822;BMP180;54434;50.096;20.082;2023-05-18T04:16:02;99534.60;;;8.20
67822;BMP180;54434;50.096;20.082;2023-05-18T04:18:39;99536.80;;;8.20
67822;BMP180;54434;50.096;20.082;2023-05-18T04:21:16;99541.40;;;8.20
67822;BMP180;54434;50.096;20.082;2023-05-18T04:23:53;99534.80;;;8.10
67822;BMP180;54434;50.096;20.082;2023-05-18T04:26:35;99540.60;;;8.10
67822;BMP180;54434;50.096;20.082;2023-05-18T04:29:12;99539.60;;;8.10
67822;BMP180;54434;50.096;20.082;2023-05-18T04:31:49;99534.00;;;8.10
67822;BMP180;54434;50.096;20.082;2023-05-18T04:34:27;99542.80;;;8.10
67822;BMP180;54434;50.096;20.082;2023-05-18T04:37:05;99546.00;;;8.10
67822;BMP180;54434;50.096;20.082;2023-05-18T04:39:41;99550.60;;;8.10
67822;BMP180;54434;50.096;20.082;2023-05-18T04:42:19;99561.60;;;8.02
67822;BMP180;54434;50.096;20.082;2023-05-18T04:44:56;99553.20;;;8.00
67822;BMP180;54434;50.096;20.082;2023-05-18T04:47:35;99558.80;;;8.00
67822;BMP180;54434;50.096;20.082;2023-05-18T04:50:15;99551.40;;;8.00
67822;BMP180;54434;50.096;20.082;2023-05-18T04:52:53;99546.80;;;8.00
67822;BMP180;54434;50.096;20.082;2023-05-18T04:55:33;99554.20;;;8.00
67822;BMP180;54434;50.096;20.082;2023-05-18T04:58:12;99559.60;;;8.04
67822;BMP180;54434;50.096;20.082;2023-05-18T05:00:50;99559.80;;;8.10
67822;BMP180;54434;50.096;20.082;2023-05-18T05:03:27;99567.00;;;8.10
67822;BMP180;54434;50.096;20.082;2023-05-18T05:06:05;99570.40;;;8.10
67822;BMP180;54434;50.096;20.082;2023-05-18T05:08:42;99573.00;;;8.10
67822;BMP180;54434;50.096;20.082;2023-05-18T05:11:18;99572.20;;;8.20
67822;BMP180;54434;50.096;20.082;2023-05-18T05:13:55;99577.40;;;8.20
67822;BMP180;54434;50.096;20.082;2023-05-18T05:16:31;99581.20;;;8.22
67822;BMP180;54434;50.096;20.082;2023-05-18T05:19:08;99586.80;;;8.30
67822;BMP180;54434;50.096;20.082;2023-05-18T05:21:44;99587.60;;;8.30
67822;BMP180;54434;50.096;20.082;2023-05-18T05:24:21;99594.40;;;8.30
67822;BMP180;54434;50.096;20.082;2023-05-18T05:26:57;99594.80;;;8.36
67822;BMP180;54434;50.096;20.082;2023-05-18T05:29:34;99602.00;;;8.40
67822;BMP180;54434;50.096;20.082;2023-05-18T05:32:12;99606.00;;;8.40
67822;BMP180;54434;50.096;20.082;2023-05-18T05:34:49;99604.60;;;8.40
67822;BMP180;54434;50.096;20.082;2023-05-18T05:37:27;99609.60;;;8.40
67822;BMP180;54434;50.096;20.082;2023-05-18T05:40:05;99613.20;;;8.40
67822;BMP180;54434;50.096;20.082;2023-05-18T05:42:46;99615.60;;;8.40
67822;BMP180;54434;50.096;20.082;2023-05-18T05:45:22;99619.80;;;8.40
67822;BMP180;54434;50.096;20.082;2023-05-18T05:48:02;99620.40;;;8.40
67822;BMP180;54434;50.096;20.082;2023-05-18T05:50:40;99624.40;;;8.40
67822;BMP180;54434;50.096;20.082;2023-05-18T05:53:16;99626.20;;;8.40
67822;BMP180;54434;50.096;20.082;2023-05-18T05:55:55;99629.20;;;8.32
67822;BMP180;54434;50.096;20.082;2023-05-18T05:58:32;99629.00;;;8.30
67822;BMP180;54434;50.096;20.082;2023-05-18T06:01:08;99630.60;;;8.30
67822;BMP180;54434;50.096;20.082;2023-05-18T06:03:46;99636.20;;;8.30
67822;BMP180;54434;50.096;20.082;2023-05-18T06:06:23;99633.60;;;8.26
67822;BMP180;54434;50.096;20.082;2023-05-18T06:08:59;99636.20;;;8.22
67822;BMP180;54434;50.096;20.082;2023-05-18T06:11:35;99640.80;;;8.20
67822;BMP180;54434;50.096;20.082;2023-05-18T06:14:12;99641.00;;;8.20
67822;BMP180;54434;50.096;20.082;2023-05-18T06:16:49;99638.40;;;8.28
67822;BMP180;54434;50.096;20.082;2023-05-18T06:19:25;99638.00;;;8.30
67822;BMP180;54434;50.096;20.082;2023-05-18T06:22:03;99640.00;;;8.30
67822;BMP180;54434;50.096;20.082;2023-05-18T06:24:47;99639.40;;;8.30
67822;BMP180;54434;50.096;20.082;2023-05-18T06:28:22;99642.40;;;8.30
67822;BMP180;54434;50.096;20.082;2023-05-18T06:31:07;99643.60;;;8.30
67822;BMP180;54434;50.096;20.082;2023-05-18T06:33:53;99648.60;;;8.40
67822;BMP180;54434;50.096;20.082;2023-05-18T06:36:30;99650.20;;;8.42
67822;BMP180;54434;50.096;20.082;2023-05-18T06:39:06;99652.80;;;8.50
67822;BMP180;54434;50.096;20.082;2023-05-18T06:41:43;99656.00;;;8.50
67822;BMP180;54434;50.096;20.082;2023-05-18T06:44:28;99660.00;;;8.50
67822;BMP180;54434;50.096;20.082;2023-05-18T06:47:13;99662.80;;;8.50
67822;BMP180;54434;50.096;20.082;2023-05-18T06:49:49;99669.60;;;8.50
67822;BMP180;54434;50.096;20.082;2023-05-18T06:52:26;99678.80;;;8.50
67822;BMP180;54434;50.096;20.082;2023-05-18T06:55:03;99678.20;;;8.60
67822;BMP180;54434;50.096;20.082;2023-05-18T06:57:41;99677.20;;;8.60
67822;BMP180;54434;50.096;20.082;2023-05-18T07:00:20;99680.40;;;8.60
67822;BMP180;54434;50.096;20.082;2023-05-18T07:02:57;99684.20;;;8.60
67822;BMP180;54434;50.096;20.082;2023-05-18T07:05:34;99684.40;;;8.70
67822;BMP180;54434;50.096;20.082;2023-05-18T07:08:13;99682.80;;;8.70
67822;BMP180;54434;50.096;20.082;2023-05-18T07:10:50;99686.00;;;8.68
67822;BMP180;54434;50.096;20.082;2023-05-18T07:13:27;99684.00;;;8.70
67822;BMP180;54434;50.096;20.082;2023-05-18T07:16:04;99687.20;;;8.70
67822;BMP180;54434;50.096;20.082;2023-05-18T07:18:41;99689.20;;;8.70
67822;BMP180;54434;50.096;20.082;2023-05-18T07:21:18;99692.60;;;8.70
67822;BMP180;54434;50.096;20.082;2023-05-18T07:23:55;99690.80;;;8.70
67822;BMP180;54434;50.096;20.082;2023-05-18T07:26:32;99694.40;;;8.74
67822;BMP180;54434;50.096;20.082;2023-05-18T07:29:09;99697.00;;;8.80
67822;BMP180;54434;50.096;20.082;2023-05-18T07:31:46;99698.00;;;8.80
67822;BMP180;54434;50.096;20.082;2023-05-18T07:34:23;99698.00;;;8.80
67822;BMP180;54434;50.096;20.082;2023-05-18T07:37:01;99701.60;;;8.74
67822;BMP180;54434;50.096;20.082;2023-05-18T07:39:39;99697.60;;;8.80
67822;BMP180;54434;50.096;20.082;2023-05-18T07:42:15;99698.20;;;8.80
67822;BMP180;54434;50.096;20.082;2023-05-18T07:44:52;99701.80;;;8.90
67822;BMP180;54434;50.096;20.082;2023-05-18T07:47:28;99702.80;;;8.90
67822;BMP180;54434;50.096;20.082;2023-05-18T07:50:06;99702.80;;;8.98
67822;BMP180;54434;50.096;20.082;2023-05-18T07:52:43;99704.80;;;9.00
67822;BMP180;54434;50.096;20.082;2023-05-18T07:55:20;99706.00;;;9.10
67822;BMP180;54434;50.096;20.082;2023-05-18T07:57:57;99704.60;;;9.10
67822;BMP180;54434;50.096;20.082;2023-05-18T08:00:35;99708.80;;;9.10
67822;BMP180;54434;50.096;20.082;2023-05-18T08:03:12;99706.20;;;9.10
67822;BMP180;54434;50.096;20.082;2023-05-18T08:05:49;99710.20;;;9.10
67822;BMP180;54434;50.096;20.082;2023-05-18T08:08:25;99708.80;;;9.10
67822;BMP180;54434;50.096;20.082;2023-05-18T08:11:03;99707.40;;;9.10
67822;BMP180;54434;50.096;20.082;2023-05-18T08:13:39;99720.80;;;9.10
67822;BMP180;54434;50.096;20.082;2023-05-18T08:16:16;99714.00;;;9.10
67822;BMP180;54434;50.096;20.082;2023-05-18T08:18:52;99712.60;;;9.20
67822;BMP180;54434;50.096;20.082;2023-05-18T08:21:29;99719.40;;;9.20
67822;BMP180;54434;50.096;20.082;2023-05-18T08:24:09;99715.80;;;9.30
67822;BMP180;54434;50.096;20.082;2023-05-18T08:26:46;99720.80;;;9.30
67822;BMP180;54434;50.096;20.082;2023-05-18T08:29:23;99717.00;;;9.30
67822;BMP180;54434;50.096;20.082;2023-05-18T08:31:59;99721.60;;;9.38
67822;BMP180;54434;50.096;20.082;2023-05-18T08:34:36;99721.80;;;9.40
67822;BMP180;54434;50.096;20.082;2023-05-18T08:37:13;99719.80;;;9.42
67822;BMP180;54434;50.096;20.082;2023-05-18T08:39:49;99720.40;;;9.50
67822;BMP180;54434;50.096;20.082;2023-05-18T08:42:37;99725.00;;;9.60
67822;BMP180;54434;50.096;20.082;2023-05-18T08:45:38;99721.20;;;9.60
67822;BMP180;54434;50.096;20.082;2023-05-18T08:48:16;99725.00;;;9.60
67822;BMP180;54434;50.096;20.082;2023-05-18T08:51:04;99727.80;;;9.64
67822;BMP180;54434;50.096;20.082;2023-05-18T08:53:42;99727.80;;;9.60
67822;BMP180;54434;50.096;20.082;2023-05-18T08:56:23;99726.40;;;9.60
67822;BMP180;54434;50.096;20.082;2023-05-18T08:59:03;99732.40;;;9.60
67822;BMP180;54434;50.096;20.082;2023-05-18T09:01:42;99726.60;;;9.60
67822;BMP180;54434;50.096;20.082;2023-05-18T09:04:21;99727.20;;;9.50
67822;BMP180;54434;50.096;20.082;2023-05-18T09:06:58;99728.60;;;9.50
67822;BMP180;54434;50.096;20.082;2023-05-18T09:09:38;99723.00;;;9.50
67822;BMP180;54434;50.096;20.082;2023-05-18T09:12:16;99727.40;;;9.50
67822;BMP180;54434;50.096;20.082;2023-05-18T09:14:56;99722.80;;;9.50
67822;BMP180;54434;50.096;20.082;2023-05-18T09:17:33;99723.80;;;9.50
67822;BMP180;54434;50.096;20.082;2023-05-18T09:20:12;99725.00;;;9.50
67822;BMP180;54434;50.096;20.082;2023-05-18T09:22:49;99720.80;;;9.42
67822;BMP180;54434;50.096;20.082;2023-05-18T09:25:27;99720.80;;;9.40
67822;BMP180;54434;50.096;20.082;2023-05-18T09:28:09;99720.80;;;9.40
67822;BMP180;54434;50.096;20.082;2023-05-18T09:30:46;99724.60;;;9.40
67822;BMP180;54434;50.096;20.082;2023-05-18T09:33:23;99722.20;;;9.40
67822;BMP180;54434;50.096;20.082;2023-05-18T09:36:00;99720.80;;;9.40
67822;BMP180;54434;50.096;20.082;2023-05-18T09:38:41;99719.80;;;9.40
67822;BMP180;54434;50.096;20.082;2023-05-18T09:41:20;99719.80;;;9.40
67822;BMP180;54434;50.096;20.082;2023-05-18T09:44:00;99723.60;;;9.40
67822;BMP180;54434;50.096;20.082;2023-05-18T09:46:41;99718.40;;;9.40
67822;BMP180;54434;50.096;20.082;2023-05-18T09:49:24;99717.00;;;9.40
67822;BMP180;54434;50.096;20.082;2023-05-18T09:52:07;99715.00;;;9.44
67822;BMP180;54434;50.096;20.082;2023-05-18T09:54:51;99710.20;;;9.60
67822;BMP180;54434;50.096;20.082;2023-05-18T09:57:27;99716.00;;;9.80
67822;BMP180;54434;50.096;20.082;2023-05-18T10:00:12;99717.40;;;10.00
67822;BMP180;54434;50.096;20.082;2023-05-18T10:02:51;99719.00;;;10.20
67822;BMP180;54434;50.096;20.082;2023-05-18T10:05:28;99718.80;;;10.30
67822;BMP180;54434;50.096;20.082;2023-05-18T10:08:12;99714.80;;;10.36
67822;BMP180;54434;50.096;20.082;2023-05-18T10:10:51;99716.40;;;10.42
67822;BMP180;54434;50.096;20.082;2023-05-18T10:13:31;99712.20;;;10.50
67822;BMP180;54434;50.096;20.082;2023-05-18T10:16:10;99709.00;;;10.60
67822;BMP180;54434;50.096;20.082;2023-05-18T10:18:47;99712.20;;;10.70
67822;BMP180;54434;50.096;20.082;2023-05-18T10:21:28;99712.80;;;10.70
67822;BMP180;54434;50.096;20.082;2023-05-18T10:24:09;99719.00;;;10.72
67822;BMP180;54434;50.096;20.082;2023-05-18T10:26:51;99718.80;;;10.70
67822;BMP180;54434;50.096;20.082;2023-05-18T10:29:32;99720.80;;;10.80
67822;BMP180;54434;50.096;20.082;2023-05-18T10:32:15;99721.00;;;10.74
67822;BMP180;54434;50.096;20.082;2023-05-18T10:34:53;99719.00;;;10.70
67822;BMP180;54434;50.096;20.082;2023-05-18T10:37:34;99719.40;;;10.70
67822;BMP180;54434;50.096;20.082;2023-05-18T10:40:14;99718.00;;;10.60
67822;BMP180;54434;50.096;20.082;2023-05-18T10:42:53;99721.40;;;10.70
67822;BMP180;54434;50.096;20.082;2023-05-18T10:45:35;99720.40;;;10.60
67822;BMP180;54434;50.096;20.082;2023-05-18T10:48:14;99722.60;;;10.50
67822;BMP180;54434;50.096;20.082;2023-05-18T10:50:55;99722.00;;;10.50
67822;BMP180;54434;50.096;20.082;2023-05-18T10:53:32;99720.40;;;10.30
67822;BMP180;54434;50.096;20.082;2023-05-18T10:56:09;99722.80;;;10.20
67822;BMP180;54434;50.096;20.082;2023-05-18T10:58:47;99723.60;;;10.10
67822;BMP180;54434;50.096;20.082;2023-05-18T11:01:24;99717.00;;;10.00
67822;BMP180;54434;50.096;20.082;2023-05-18T11:04:04;99718.40;;;9.90
67822;BMP180;54434;50.096;20.082;2023-05-18T11:06:42;99721.40;;;9.80
67822;BMP180;54434;50.096;20.082;2023-05-18T11:09:28;99721.40;;;9.80
67822;BMP180;54434;50.096;20.082;2023-05-18T11:12:11;99723.20;;;9.76
67822;BMP180;54434;50.096;20.082;2023-05-18T11:14:56;99725.80;;;9.80
67822;BMP180;54434;50.096;20.082;2023-05-18T11:17:33;99727.60;;;9.78
67822;BMP180;54434;50.096;20.082;2023-05-18T11:20:18;99727.40;;;9.70
67822;BMP180;54434;50.096;20.082;2023-05-18T11:23:06;99731.00;;;9.70
67822;BMP180;54434;50.096;20.082;2023-05-18T11:25:50;99728.60;;;9.70
67822;BMP180;54434;50.096;20.082;2023-05-18T11:28:29;99727.00;;;9.70
67822;BMP180;54434;50.096;20.082;2023-05-18T11:31:07;99727.60;;;9.68
67822;BMP180;54434;50.096;20.082;2023-05-18T11:33:52;99730.40;;;9.64
67822;BMP180;54434;50.096;20.082;2023-05-18T11:36:28;99730.80;;;9.68
67822;BMP180;54434;50.096;20.082;2023-05-18T11:39:11;99732.20;;;9.70
67822;BMP180;54434;50.096;20.082;2023-05-18T11:42:09;99734.80;;;9.70
67822;BMP180;54434;50.096;20.082;2023-05-18T11:44:53;99729.80;;;9.70
67822;BMP180;54434;50.096;20.082;2023-05-18T11:47:35;99733.60;;;9.70
67822;BMP180;54434;50.096;20.082;2023-05-18T11:50:18;99733.40;;;9.72
67822;BMP180;54434;50.096;20.082;2023-05-18T11:52:57;99733.40;;;9.80
67822;BMP180;54434;50.096;20.082;2023-05-18T11:55:43;99731.40;;;9.80
67822;BMP180;54434;50.096;20.082;2023-05-18T11:58:21;99734.60;;;9.90
67822;BMP180;54434;50.096;20.082;2023-05-18T12:01:02;99739.60;;;9.90
67822;BMP180;54434;50.096;20.082;2023-05-18T12:03:42;99739.40;;;9.90
67822;BMP180;54434;50.096;20.082;2023-05-18T12:06:23;99742.40;;;9.90
67822;BMP180;54434;50.096;20.082;2023-05-18T12:09:01;99743.00;;;9.90
67822;BMP180;54434;50.096;20.082;2023-05-18T12:11:38;99745.80;;;9.98
67822;BMP180;54434;50.096;20.082;2023-05-18T12:14:16;99750.20;;;10.00
67822;BMP180;54434;50.096;20.082;2023-05-18T12:16:55;99753.80;;;10.00
67822;BMP180;54434;50.096;20.082;2023-05-18T12:19:41;99752.60;;;10.00
67822;BMP180;54434;50.096;20.082;2023-05-18T12:22:18;99756.60;;;10.10
67822;BMP180;54434;50.096;20.082;2023-05-18T12:24:55;99754.00;;;10.10
67822;BMP180;54434;50.096;20.082;2023-05-18T12:27:32;99754.40;;;10.10
67822;BMP180;54434;50.096;20.082;2023-05-18T12:30:19;99754.80;;;10.10
67822;BMP180;54434;50.096;20.082;2023-05-18T12:32:57;99755.60;;;10.10
67822;BMP180;54434;50.096;20.082;2023-05-18T12:35:35;99759.40;;;10.10
67822;BMP180;54434;50.096;20.082;2023-05-18T12:38:11;99762.40;;;10.08
67822;BMP180;54434;50.096;20.082;2023-05-18T12:40:52;99757.80;;;10.02
67822;BMP180;54434;50.096;20.082;2023-05-18T12:43:35;99763.40;;;10.02
67822;BMP180;54434;50.096;20.082;2023-05-18T12:46:13;99760.80;;;10.00
67822;BMP180;54434;50.096;20.082;2023-05-18T12:48:58;99764.60;;;10.00
67822;BMP180;54434;50.096;20.082;2023-05-18T12:51:39;99761.20;;;10.00
67822;BMP180;54434;50.096;20.082;2023-05-18T12:54:16;99758.40;;;10.00
67822;BMP180;54434;50.096;20.082;2023-05-18T12:57:07;99758.40;;;10.04
67822;BMP180;54434;50.096;20.082;2023-05-18T12:59:49;99759.80;;;10.10
67822;BMP180;54434;50.096;20.082;2023-05-18T13:02:36;99758.60;;;10.10
67822;BMP180;54434;50.096;20.082;2023-05-18T13:05:13;99754.80;;;10.10
67822;BMP180;54434;50.096;20.082;2023-05-18T13:07:50;99755.20;;;10.10
67822;BMP180;54434;50.096;20.082;2023-05-18T13:10:30;99751.60;;;10.10
67822;BMP180;54434;50.096;20.082;2023-05-18T13:13:06;99750.20;;;10.10
67822;BMP180;54434;50.096;20.082;2023-05-18T13:15:44;99750.20;;;10.10
67822;BMP180;54434;50.096;20.082;2023-05-18T13:18:21;99751.00;;;10.10
67822;BMP180;54434;50.096;20.082;2023-05-18T13:20:58;99750.00;;;10.10
67822;BMP180;54434;50.096;20.082;2023-05-18T13:23:35;99747.60;;;10.20
67822;BMP180;54434;50.096;20.082;2023-05-18T13:26:13;99745.80;;;10.30
67822;BMP180;54434;50.096;20.082;2023-05-18T13:28:55;99743.00;;;10.30
67822;BMP180;54434;50.096;20.082;2023-05-18T13:31:30;99743.40;;;10.30
67822;BMP180;54434;50.096;20.082;2023-05-18T13:34:07;99743.40;;;10.30
67822;BMP180;54434;50.096;20.082;2023-05-18T13:36:43;99738.60;;;10.40
67822;BMP180;54434;50.096;20.082;2023-05-18T13:39:20;99741.20;;;10.40
67822;BMP180;54434;50.096;20.082;2023-05-18T13:41:57;99747.40;;;10.40
67822;BMP180;54434;50.096;20.082;2023-05-18T13:44:33;99745.00;;;10.50
67822;BMP180;54434;50.096;20.082;2023-05-18T13:47:11;99740.00;;;10.50
67822;BMP180;54434;50.096;20.082;2023-05-18T13:49:47;99740.20;;;10.60
67822;BMP180;54434;50.096;20.082;2023-05-18T13:52:24;99748.80;;;10.60
67822;BMP180;54434;50.096;20.082;2023-05-18T13:55:00;99743.60;;;10.70
67822;BMP180;54434;50.096;20.082;2023-05-18T13:57:36;99745.20;;;10.70
67822;BMP180;54434;50.096;20.082;2023-05-18T14:00:16;99745.20;;;10.72
67822;BMP180;54434;50.096;20.082;2023-05-18T14:02:54;99742.60;;;10.70
67822;BMP180;54434;50.096;20.082;2023-05-18T14:05:31;99739.80;;;10.80
67822;BMP180;54434;50.096;20.082;2023-05-18T14:08:09;99734.60;;;10.70
67822;BMP180;54434;50.096;20.082;2023-05-18T14:10:45;99733.20;;;10.70
67822;BMP180;54434;50.096;20.082;2023-05-18T14:13:21;99734.80;;;10.60
67822;BMP180;54434;50.096;20.082;2023-05-18T14:15:58;99735.20;;;10.50
67822;BMP180;54434;50.096;20.082;2023-05-18T14:18:34;99737.60;;;10.46
67822;BMP180;54434;50.096;20.082;2023-05-18T14:21:11;99739.40;;;10.40
67822;BMP180;54434;50.096;20.082;2023-05-18T14:23:47;99730.60;;;10.30
67822;BMP180;54434;50.096;20.082;2023-05-18T14:26:23;99735.00;;;10.30
67822;BMP180;54434;50.096;20.082;2023-05-18T14:29:00;99736.80;;;10.10
67822;BMP180;54434;50.096;20.082;2023-05-18T14:31:37;99738.80;;;10.10
67822;BMP180;54434;50.096;20.082;2023-05-18T14:34:14;99740.00;;;10.10
67822;BMP180;54434;50.096;20.082;2023-05-18T14:36:50;99737.40;;;10.00
67822;BMP180;54434;50.096;20.082;2023-05-18T14:39:26;99741.00;;;10.04
67822;BMP180;54434;50.096;20.082;2023-05-18T14:42:03;99735.20;;;10.00
67822;BMP180;54434;50.096;20.082;2023-05-18T14:44:39;99736.20;;;10.00
67822;BMP180;54434;50.096;20.082;2023-05-18T14:47:16;99737.60;;;10.00
67822;BMP180;54434;50.096;20.082;2023-05-18T14:49:52;99739.00;;;10.00
67822;BMP180;54434;50.096;20.082;2023-05-18T14:52:29;99739.80;;;10.00
67822;BMP180;54434;50.096;20.082;2023-05-18T14:55:07;99735.40;;;9.90
67822;BMP180;54434;50.096;20.082;2023-05-18T14:57:43;99735.20;;;9.90
67822;BMP180;54434;50.096;20.082;2023-05-18T15:00:21;99737.60;;;9.90
67822;BMP180;54434;50.096;20.082;2023-05-18T15:02:57;99739.00;;;9.90
67822;BMP180;54434;50.096;20.082;2023-05-18T15:05:35;99737.80;;;9.90
67822;BMP180;54434;50.096;20.082;2023-05-18T15:08:12;99732.20;;;9.80
67822;BMP180;54434;50.096;20.082;2023-05-18T15:10:49;99730.60;;;9.80
67822;BMP180;54434;50.096;20.082;2023-05-18T15:13:25;99731.40;;;9.80